sensor_id;sensor_type;location;lat;lon;timestamp;pressure;altitude;pressure_sealevel;temperature;humidity
37238;BME280;23129;49.662;8.448;2023-02-05T00:00:33;102868.56;;;3.91;100.00
37238;BME280;23129;49.662;8.448;2023-02-05T00:03:03;102865.97;;;3.91;100.00
37238;BME280;23129;49.662;8.448;2023-02-05T00:05:31;102859.88;;;3.91;100.00
37238;BME280;23129;49.662;8.448;2023-02-05T00:08:00;102859.84;;;3.89;100.00
37238;BME280;23129;49.662;8.448;2023-02-05T00:10:29;102864.94;;;3.86;100.00
37238;BME280;23129;49.662;8.448;2023-02-05T00:12:57;102863.84;;;3.81;100.00
37238;BME280;23129;49.662;8.448;2023-02-05T00:15:26;102862.91;;;3.79;100.00
37238;BME280;23129;49.662;8.448;2023-02-05T00:17:55;102862.78;;;3.76;100.00
37238;BME280;23129;49.662;8.448;2023-02-05T00:20:26;102855.06;;;3.77;100.00
37238;BME280;23129;49.662;8.448;2023-02-05T00:22:54;102855.94;;;3.78;100.00
37238;BME280;23129;49.662;8.448;2023-02-05T00:25:23;102852.50;;;3.79;100.00
37238;BME280;23129;49.662;8.448;2023-02-05T00:27:51;102841.44;;;3.83;100.00
37238;BME280;23129;49.662;8.448;2023-02-05T00:30:20;102839.00;;;3.87;100.00
37238;BME280;23129;49.662;8.448;2023-02-05T00:32:49;102840.84;;;3.90;100.00
37238;BME280;23129;49.662;8.448;2023-02-05T00:35:18;102840.97;;;3.93;100.00
37238;BME280;23129;49.662;8.448;2023-02-05T00:37:47;102834.13;;;3.95;100.00
37238;BME280;23129;49.662;8.448;2023-02-05T00:40:17;102833.28;;;3.96;100.00
37238;BME280;23129;49.662;8.448;2023-02-05T00:42:46;102835.88;;;3.96;100.00
37238;BME280;23129;49.662;8.448;2023-02-05T00:45:15;102825.50;;;3.96;100.00
37238;BME280;23129;49.662;8.448;2023-02-05T00:47:43;102834.03;;;3.94;100.00
37238;BME280;23129;49.662;8.448;2023-02-05T00:50:11;102832.22;;;3.91;100.00
37238;BME280;23129;49.662;8.448;2023-02-05T00:52:40;102828.69;;;3.89;100.00
37238;BME280;23129;49.662;8.448;2023-02-05T00:55:10;102828.59;;;3.86;100.00
37238;BME280;23129;49.662;8.448;2023-02-05T00:57:38;102824.16;;;3.83;100.00
37238;BME280;23129;49.662;8.448;2023-02-05T01:00:09;102830.97;;;3.81;100.00
37238;BME280;23129;49.662;8.448;2023-02-05T01:02:37;102830.00;;;3.78;100.00
37238;BME280;23129;49.662;8.448;2023-02-05T01:05:06;102821.25;;;3.76;100.00
37238;BME280;23129;49.662;8.448;2023-02-05T01:07:35;102810.88;;;3.76;100.00
37238;BME280;23129;49.662;8.448;2023-02-05T01:10:05;102809.22;;;3.78;100.00
37238;BME280;23129;49.662;8.448;2023-02-05T01:12:35;102811.94;;;3.81;100.00
37238;BME280;23129;49.662;8.448;2023-02-05T01:15:06;102808.56;;;3.83;100.00
37238;BME280;23129;49.662;8.448;2023-02-05T01:17:35;102806.13;;;3.88;100.00
37238;BME280;23129;49.662;8.448;2023-02-05T01:20:04;102802.84;;;3.92;100.00
37238;BME280;23129;49.662;8.448;2023-02-05T01:22:33;102792.56;;;3.95;100.00
37238;BME280;23129;49.662;8.448;2023-02-05T01:25:02;102794.34;;;3.96;100.00
37238;BME280;23129;49.662;8.448;2023-02-05T01:27:31;102792.72;;;4.00;100.00
37238;BME280;23129;49.662;8.448;2023-02-05T01:30:01;102798.00;;;4.01;100.00
37238;BME280;23129;49.662;8.448;2023-02-05T01:32:30;102784.25;;;4.04;100.00
37238;BME280;23129;49.662;8.448;2023-02-05T01:34:59;102786.03;;;4.06;100.00
37238;BME280;23129;49.662;8.448;2023-02-05T01:37:27;102790.44;;;4.07;100.00
37238;BME280;23129;49.662;8.448;2023-02-05T01:39:56;102784.41;;;4.08;100.00
37238;BME280;23129;49.662;8.448;2023-02-05T01:42:26;102787.84;;;4.07;100.00
37238;BME280;23129;49.662;8.448;2023-02-05T01:48:39;102790.09;;;3.98;100.00
37238;BME280;23129;49.662;8.448;2023-02-05T01:51:12;102790.91;;;3.97;100.00
37238;BME280;23129;49.662;8.448;2023-02-05T01:53:43;102787.50;;;3.98;100.00
37238;BME280;23129;49.662;8.448;2023-02-05T01:56:16;102790.22;;;4.01;100.00
37238;BME280;23129;49.662;8.448;2023-02-05T01:58:51;102781.69;;;4.05;100.00
37238;BME280;23129;49.662;8.448;2023-02-05T02:01:22;102772.25;;;4.07;100.00
37238;BME280;23129;49.662;8.448;2023-02-05T02:03:54;102758.41;;;4.08;100.00
37238;BME280;23129;49.662;8.448;2023-02-05T02:06:24;102748.91;;;4.09;100.00
37238;BME280;23129;49.662;8.448;2023-02-05T02:08:53;102741.19;;;4.10;100.00
37238;BME280;23129;49.662;8.448;2023-02-05T02:11:22;102737.81;;;4.13;100.00
37238;BME280;23129;49.662;8.448;2023-02-05T02:13:56;102733.56;;;4.15;100.00
37238;BME280;23129;49.662;8.448;2023-02-05T02:16:26;102735.44;;;4.19;100.00
37238;BME280;23129;49.662;8.448;2023-02-05T02:18:57;102741.53;;;4.20;100.00
37238;BME280;23129;49.662;8.448;2023-02-05T02:22:04;102744.94;;;4.19;100.00
37238;BME280;23129;49.662;8.448;2023-02-05T02:25:23;102741.53;;;4.20;100.00
37238;BME280;23129;49.662;8.448;2023-02-05T02:28:05;102741.53;;;4.20;100.00
37238;BME280;23129;49.662;8.448;2023-02-05T02:30:41;102741.41;;;4.17;100.00
37238;BME280;23129;49.662;8.448;2023-02-05T02:33:17;102742.22;;;4.16;100.00
37238;BME280;23129;49.662;8.448;2023-02-05T02:35:55;102739.63;;;4.16;100.00
37238;BME280;23129;49.662;8.448;2023-02-05T02:38:30;102734.31;;;4.12;100.00
37238;BME280;23129;49.662;8.448;2023-02-05T02:41:06;102729.09;;;4.11;100.00
37238;BME280;23129;49.662;8.448;2023-02-05T02:43:47;102724.72;;;4.10;100.00
37238;BME280;23129;49.662;8.448;2023-02-05T02:46:22;102718.63;;;4.09;100.00
37238;BME280;23129;49.662;8.448;2023-02-05T02:48:54;102718.63;;;4.09;100.00
37238;BME280;23129;49.662;8.448;2023-02-05T02:51:27;102720.41;;;4.10;100.00
37238;BME280;23129;49.662;8.448;2023-02-05T02:53:57;102717.94;;;4.14;100.00
37238;BME280;23129;49.662;8.448;2023-02-05T02:56:28;102714.50;;;4.15;100.00
37238;BME280;23129;49.662;8.448;2023-02-05T02:59:03;102715.44;;;4.17;100.00
37238;BME280;23129;49.662;8.448;2023-02-05T03:01:37;102707.78;;;4.21;100.00
37238;BME280;23129;49.662;8.448;2023-02-05T03:04:20;102712.28;;;4.25;100.00
37238;BME280;23129;49.662;8.448;2023-02-05T03:06:53;102711.50;;;4.28;100.00
37238;BME280;23129;49.662;8.448;2023-02-05T03:09:29;102708.06;;;4.29;100.00
37238;BME280;23129;49.662;8.448;2023-02-05T03:11:59;102696.84;;;4.30;100.00
37238;BME280;23129;49.662;8.448;2023-02-05T03:14:29;102691.63;;;4.30;100.00
37238;BME280;23129;49.662;8.448;2023-02-05T03:17:00;102689.88;;;4.29;100.00
37238;BME280;23129;49.662;8.448;2023-02-05T03:19:30;102686.41;;;4.28;100.00
37238;BME280;23129;49.662;8.448;2023-02-05T03:22:02;102681.16;;;4.27;100.00
37238;BME280;23129;49.662;8.448;2023-02-05T03:24:32;102688.03;;;4.25;100.00
37238;BME280;23129;49.662;8.448;2023-02-05T03:27:00;102681.03;;;4.24;100.00
37238;BME280;23129;49.662;8.448;2023-02-05T03:29:34;102674.09;;;4.23;100.00
37238;BME280;23129;49.662;8.448;2023-02-05T03:32:23;102672.25;;;4.20;100.00
37238;BME280;23129;49.662;8.448;2023-02-05T03:35:07;102686.97;;;4.20;100.00
37238;BME280;23129;49.662;8.448;2023-02-05T03:37:52;102692.97;;;4.19;100.00
37238;BME280;23129;49.662;8.448;2023-02-05T03:40:32;102692.97;;;4.19;100.00
37238;BME280;23129;49.662;8.448;2023-02-05T03:43:11;102694.75;;;4.20;100.00
37238;BME280;23129;49.662;8.448;2023-02-05T03:45:54;102687.00;;;4.21;100.00
37238;BME280;23129;49.662;8.448;2023-02-05T03:48:41;102682.69;;;4.22;100.00
37238;BME280;23129;49.662;8.448;2023-02-05T03:51:28;102681.88;;;4.23;100.00
37238;BME280;23129;49.662;8.448;2023-02-05T03:54:08;102674.09;;;4.23;100.00
37238;BME280;23129;49.662;8.448;2023-02-05T03:56:48;102680.94;;;4.21;100.00
37238;BME280;23129;49.662;8.448;2023-02-05T03:59:19;102683.59;;;4.22;100.00
37238;BME280;23129;49.662;8.448;2023-02-05T04:01:51;102682.69;;;4.22;100.00
37238;BME280;23129;49.662;8.448;2023-02-05T04:04:21;102674.91;;;4.22;100.00
37238;BME280;23129;49.662;8.448;2023-02-05T04:06:51;102677.41;;;4.19;100.00
37238;BME280;23129;49.662;8.448;2023-02-05T04:09:21;102673.88;;;4.17;100.00
37238;BME280;23129;49.662;8.448;2023-02-05T04:11:51;102675.63;;;4.18;100.00
37238;BME280;23129;49.662;8.448;2023-02-05T04:14:20;102681.72;;;4.18;100.00
37238;BME280;23129;49.662;8.448;2023-02-05T04:16:51;102693.03;;;4.20;100.00
37238;BME280;23129;49.662;8.448;2023-02-05T04:19:22;102692.28;;;4.23;100.00
37238;BME280;23129;49.662;8.448;2023-02-05T04:21:53;102689.78;;;4.26;100.00
37238;BME280;23129;49.662;8.448;2023-02-05T04:24:21;102692.47;;;4.29;100.00
37238;BME280;23129;49.662;8.448;2023-02-05T04:26:52;102687.31;;;4.30;100.00
37238;BME280;23129;49.662;8.448;2023-02-05T04:29:20;102697.88;;;4.35;100.00
37238;BME280;23129;49.662;8.448;2023-02-05T04:31:52;102705.69;;;4.35;100.00
37238;BME280;23129;49.662;8.448;2023-02-05T04:34:20;102698.00;;;4.38;100.00
37238;BME280;23129;49.662;8.448;2023-02-05T04:36:49;102687.63;;;4.40;100.00
37238;BME280;23129;49.662;8.448;2023-02-05T04:39:17;102688.66;;;4.43;100.00
37238;BME280;23129;49.662;8.448;2023-02-05T04:41:46;102697.34;;;4.45;100.00
37238;BME280;23129;49.662;8.448;2023-02-05T04:44:14;102691.34;;;4.46;100.00
37238;BME280;23129;49.662;8.448;2023-02-05T04:46:43;102704.44;;;4.49;100.00
37238;BME280;23129;49.662;8.448;2023-02-05T04:49:12;102701.00;;;4.50;100.00
37238;BME280;23129;49.662;8.448;2023-02-05T04:51:41;102694.16;;;4.52;100.00
37238;BME280;23129;49.662;8.448;2023-02-05T04:54:09;102694.06;;;4.51;100.00
37238;BME280;23129;49.662;8.448;2023-02-05T04:56:38;102697.44;;;4.48;100.00
37238;BME280;23129;49.662;8.448;2023-02-05T04:59:07;102690.41;;;4.44;100.00
37238;BME280;23129;49.662;8.448;2023-02-05T05:01:35;102681.66;;;4.42;100.00
37238;BME280;23129;49.662;8.448;2023-02-05T05:04:04;102676.34;;;4.39;100.00
37238;BME280;23129;49.662;8.448;2023-02-05T05:06:34;102679.69;;;4.35;100.00
37238;BME280;23129;49.662;8.448;2023-02-05T05:09:02;102672.66;;;4.31;100.00
37238;BME280;23129;49.662;8.448;2023-02-05T05:11:31;102670.03;;;4.31;100.00
37238;BME280;23129;49.662;8.448;2023-02-05T05:13:59;102668.25;;;4.30;100.00
37238;BME280;23129;49.662;8.448;2023-02-05T05:16:28;102669.09;;;4.29;100.00
37238;BME280;23129;49.662;8.448;2023-02-05T05:18:56;102663.91;;;4.29;100.00
37238;BME280;23129;49.662;8.448;2023-02-05T05:21:24;102665.66;;;4.30;100.00
37238;BME280;23129;49.662;8.448;2023-02-05T05:23:54;102672.66;;;4.31;100.00
37238;BME280;23129;49.662;8.448;2023-02-05T05:26:23;102681.34;;;4.33;100.00
37238;BME280;23129;49.662;8.448;2023-02-05T05:28:52;102674.50;;;4.35;100.00
37238;BME280;23129;49.662;8.448;2023-02-05T05:31:21;102680.66;;;4.37;100.00
37238;BME280;23129;49.662;8.448;2023-02-05T05:33:51;102676.25;;;4.36;100.00
37238;BME280;23129;49.662;8.448;2023-02-05T05:36:19;102685.88;;;4.39;100.00
37238;BME280;23129;49.662;8.448;2023-02-05T05:38:48;102692.91;;;4.41;100.00
37238;BME280;23129;49.662;8.448;2023-02-05T05:41:21;102688.53;;;4.40;100.00
37238;BME280;23129;49.662;8.448;2023-02-05T05:44:07;102684.22;;;4.41;100.00
37238;BME280;23129;49.662;8.448;2023-02-05T05:46:38;102681.56;;;4.39;100.00
37238;BME280;23129;49.662;8.448;2023-02-05T05:49:06;102681.56;;;4.39;100.00
37238;BME280;23129;49.662;8.448;2023-02-05T05:51:35;102678.94;;;4.38;100.00
37238;BME280;23129;49.662;8.448;2023-02-05T05:54:03;102678.03;;;4.37;100.00
37238;BME280;23129;49.662;8.448;2023-02-05T05:56:33;102677.97;;;4.35;100.00
37238;BME280;23129;49.662;8.448;2023-02-05T05:59:02;102681.47;;;4.36;100.00
37238;BME280;23129;49.662;8.448;2023-02-05T06:01:31;102666.72;;;4.35;100.00
37238;BME280;23129;49.662;8.448;2023-02-05T06:04:01;102662.34;;;4.34;100.00
37238;BME280;23129;49.662;8.448;2023-02-05T06:06:30;102660.56;;;4.33;100.00
37238;BME280;23129;49.662;8.448;2023-02-05T06:08:59;102674.50;;;4.35;100.00
37238;BME280;23129;49.662;8.448;2023-02-05T06:11:27;102665.00;;;4.35;100.00
37238;BME280;23129;49.662;8.448;2023-02-05T06:13:57;102672.00;;;4.38;100.00
37238;BME280;23129;49.662;8.448;2023-02-05T06:16:25;102683.34;;;4.40;100.00
37238;BME280;23129;49.662;8.448;2023-02-05T06:18:54;102685.97;;;4.42;100.00
37238;BME280;23129;49.662;8.448;2023-02-05T06:21:23;102686.84;;;4.42;100.00
37238;BME280;23129;49.662;8.448;2023-02-05T06:23:51;102692.94;;;4.43;100.00
37238;BME280;23129;49.662;8.448;2023-02-05T06:26:20;102690.28;;;4.41;100.00
37238;BME280;23129;49.662;8.448;2023-02-05T06:28:48;102695.50;;;4.41;100.00
37238;BME280;23129;49.662;8.448;2023-02-05T06:31:18;102692.81;;;4.40;100.00
37238;BME280;23129;49.662;8.448;2023-02-05T06:33:47;102686.81;;;4.41;100.00
37238;BME280;23129;49.662;8.448;2023-02-05T06:36:15;102679.91;;;4.41;100.00
37238;BME280;23129;49.662;8.448;2023-02-05T06:38:44;102681.66;;;4.42;100.00
37238;BME280;23129;49.662;8.448;2023-02-05T06:41:12;102686.84;;;4.42;100.00
37238;BME280;23129;49.662;8.448;2023-02-05T06:43:41;102672.03;;;4.40;100.00
37238;BME280;23129;49.662;8.448;2023-02-05T06:46:10;102662.19;;;4.29;100.00
37238;BME280;23129;49.662;8.448;2023-02-05T06:48:39;102667.00;;;4.19;100.00
37238;BME280;23129;49.662;8.448;2023-02-05T06:51:08;102654.66;;;4.11;100.00
37238;BME280;23129;49.662;8.448;2023-02-05T06:53:36;102649.13;;;4.02;100.00
37238;BME280;23129;49.662;8.448;2023-02-05T06:56:05;102647.19;;;3.95;100.00
37238;BME280;23129;49.662;8.448;2023-02-05T06:58:34;102647.78;;;3.88;100.00
37238;BME280;23129;49.662;8.448;2023-02-05T07:01:03;102646.75;;;3.83;100.00
37238;BME280;23129;49.662;8.448;2023-02-05T07:03:32;102649.19;;;3.80;100.00
37238;BME280;23129;49.662;8.448;2023-02-05T07:06:03;102647.41;;;3.77;100.00
37238;BME280;23129;49.662;8.448;2023-02-05T07:08:33;102640.38;;;3.75;100.00
37238;BME280;23129;49.662;8.448;2023-02-05T07:11:01;102645.59;;;3.75;100.00
37238;BME280;23129;49.662;8.448;2023-02-05T07:13:30;102651.59;;;3.74;100.00
37238;BME280;23129;49.662;8.448;2023-02-05T07:16:02;102654.25;;;3.75;100.00
37238;BME280;23129;49.662;8.448;2023-02-05T07:18:31;102655.13;;;3.76;100.00
37238;BME280;23129;49.662;8.448;2023-02-05T07:21:05;102661.16;;;3.75;100.00
37238;BME280;23129;49.662;8.448;2023-02-05T07:23:34;102673.28;;;3.76;100.00
37238;BME280;23129;49.662;8.448;2023-02-05T07:26:07;102670.78;;;3.77;100.00
37238;BME280;23129;49.662;8.448;2023-02-05T07:28:36;102667.38;;;3.80;100.00
37238;BME280;23129;49.662;8.448;2023-02-05T07:31:05;102658.81;;;3.82;100.00
37238;BME280;23129;49.662;8.448;2023-02-05T07:33:34;102654.56;;;3.84;100.00
37238;BME280;23129;49.662;8.448;2023-02-05T07:36:06;102657.25;;;3.86;100.00
37238;BME280;23129;49.662;8.448;2023-02-05T07:38:36;102661.59;;;3.87;100.00
37238;BME280;23129;49.662;8.448;2023-02-05T07:41:05;102646.00;;;3.87;100.00
37238;BME280;23129;49.662;8.448;2023-02-05T07:43:34;102638.22;;;3.87;100.00
37238;BME280;23129;49.662;8.448;2023-02-05T07:46:05;102637.34;;;3.86;100.00
37238;BME280;23129;49.662;8.448;2023-02-05T07:48:34;102637.28;;;3.85;100.00
37238;BME280;23129;49.662;8.448;2023-02-05T07:51:05;102635.53;;;3.84;100.00
37238;BME280;23129;49.662;8.448;2023-02-05T07:53:33;102640.66;;;3.82;100.00
37238;BME280;23129;49.662;8.448;2023-02-05T07:56:02;102636.38;;;3.83;100.00
37238;BME280;23129;49.662;8.448;2023-02-05T07:58:31;102638.97;;;3.83;100.00
37238;BME280;23129;49.662;8.448;2023-02-05T08:01:00;102639.88;;;3.85;100.00
37238;BME280;23129;49.662;8.448;2023-02-05T08:03:29;102646.84;;;3.86;100.00
37238;BME280;23129;49.662;8.448;2023-02-05T08:05:58;102633.91;;;3.87;100.00
37238;BME280;23129;49.662;8.448;2023-02-05T08:08:28;102632.25;;;3.89;100.00
37238;BME280;23129;49.662;8.448;2023-02-05T08:10:58;102638.44;;;3.93;100.00
37238;BME280;23129;49.662;8.448;2023-02-05T08:13:27;102635.84;;;3.93;100.00
37238;BME280;23129;49.662;8.448;2023-02-05T08:15:56;102629.03;;;3.97;100.00
37238;BME280;23129;49.662;8.448;2023-02-05T08:18:27;102627.31;;;3.97;100.00
37238;BME280;23129;49.662;8.448;2023-02-05T08:20:56;102633.47;;;3.99;100.00
37238;BME280;23129;49.662;8.448;2023-02-05T08:23:25;102630.91;;;4.01;100.00
37238;BME280;23129;49.662;8.448;2023-02-05T08:25:56;102628.38;;;4.02;100.00
37238;BME280;23129;49.662;8.448;2023-02-05T08:28:26;102623.25;;;4.04;100.00
37238;BME280;23129;49.662;8.448;2023-02-05T08:30:57;102613.84;;;4.07;100.00
37238;BME280;23129;49.662;8.448;2023-02-05T08:33:25;102606.97;;;4.09;100.00
37238;BME280;23129;49.662;8.448;2023-02-05T08:35:55;102618.28;;;4.11;100.00
37238;BME280;23129;49.662;8.448;2023-02-05T08:38:24;102616.63;;;4.14;100.00
37238;BME280;23129;49.662;8.448;2023-02-05T08:40:52;102614.94;;;4.16;100.00
37238;BME280;23129;49.662;8.448;2023-02-05T08:43:22;102606.34;;;4.17;100.00
37238;BME280;23129;49.662;8.448;2023-02-05T08:45:51;102601.25;;;4.20;100.00
37238;BME280;23129;49.662;8.448;2023-02-05T08:48:19;102599.56;;;4.22;100.00
37238;BME280;23129;49.662;8.448;2023-02-05T08:50:49;102600.50;;;4.24;100.00
37238;BME280;23129;49.662;8.448;2023-02-05T08:53:18;102598.88;;;4.26;100.00
37238;BME280;23129;49.662;8.448;2023-02-05T08:55:54;102591.16;;;4.29;100.00
37238;BME280;23129;49.662;8.448;2023-02-05T08:58:24;102592.09;;;4.31;100.00
37238;BME280;23129;49.662;8.448;2023-02-05T09:00:58;102594.81;;;4.34;100.00
37238;BME280;23129;49.662;8.448;2023-02-05T09:03:27;102594.91;;;4.37;100.00
37238;BME280;23129;49.662;8.448;2023-02-05T09:05:56;102596.75;;;4.41;100.00
37238;BME280;23129;49.662;8.448;2023-02-05T09:08:26;102593.31;;;4.42;100.00
37238;BME280;23129;49.662;8.448;2023-02-05T09:10:57;102587.34;;;4.45;100.00
37238;BME280;23129;49.662;8.448;2023-02-05T09:13:27;102591.75;;;4.47;100.00
37238;BME280;23129;49.662;8.448;2023-02-05T09:15:55;102596.09;;;4.48;100.00
37238;BME280;23129;49.662;8.448;2023-02-05T09:18:24;102588.31;;;4.48;100.00
37238;BME280;23129;49.662;8.448;2023-02-05T09:20:52;102596.06;;;4.47;100.00
37238;BME280;23129;49.662;8.448;2023-02-05T09:23:21;102590.00;;;4.46;100.00
37238;BME280;23129;49.662;8.448;2023-02-05T09:25:50;102582.25;;;4.48;100.00
37238;BME280;23129;49.662;8.448;2023-02-05T09:28:18;102580.50;;;4.48;100.00
37238;BME280;23129;49.662;8.448;2023-02-05T09:30:48;102585.72;;;4.48;100.00
37238;BME280;23129;49.662;8.448;2023-02-05T09:33:18;102583.13;;;4.48;100.00
37238;BME280;23129;49.662;8.448;2023-02-05T09:35:46;102583.13;;;4.48;100.00
37238;BME280;23129;49.662;8.448;2023-02-05T09:38:15;102577.91;;;4.48;100.00
37238;BME280;23129;49.662;8.448;2023-02-05T09:40:55;102575.28;;;4.47;100.00
37238;BME280;23129;49.662;8.448;2023-02-05T09:43:42;102572.72;;;4.48;100.00
37238;BME280;23129;49.662;8.448;2023-02-05T09:46:20;102566.66;;;4.48;100.00
37238;BME280;23129;49.662;8.448;2023-02-05T09:48:57;102565.03;;;4.51;100.00
37238;BME280;23129;49.662;8.448;2023-02-05T09:51:33;102569.31;;;4.49;100.00
37238;BME280;23129;49.662;8.448;2023-02-05T09:54:12;102573.56;;;4.47;100.00
37238;BME280;23129;49.662;8.448;2023-02-05T09:56:43;102570.13;;;4.48;100.00
37238;BME280;23129;49.662;8.448;2023-02-05T09:59:15;102560.66;;;4.50;100.00
37238;BME280;23129;49.662;8.448;2023-02-05T10:01:50;102562.41;;;4.51;100.00
37238;BME280;23129;49.662;8.448;2023-02-05T10:04:19;102557.22;;;4.51;100.00
37238;BME280;23129;49.662;8.448;2023-02-05T10:07:16;102555.44;;;4.49;100.00
37238;BME280;23129;49.662;8.448;2023-02-05T10:10:21;102564.13;;;4.49;100.00
37238;BME280;23129;49.662;8.448;2023-02-05T10:16:09;102559.00;;;4.52;100.00
37238;BME280;23129;49.662;8.448;2023-02-05T10:19:03;102555.56;;;4.53;100.00
37238;BME280;23129;49.662;8.448;2023-02-05T10:21:55;102558.13;;;4.52;100.00
37238;BME280;23129;49.662;8.448;2023-02-05T10:25:02;102551.16;;;4.51;100.00
37238;BME280;23129;49.662;8.448;2023-02-05T10:27:40;102546.00;;;4.52;100.00
37238;BME280;23129;49.662;8.448;2023-02-05T10:30:17;102552.13;;;4.54;100.00
37238;BME280;23129;49.662;8.448;2023-02-05T10:32:55;102547.03;;;4.57;100.00
37238;BME280;23129;49.662;8.448;2023-02-05T10:35:32;102536.72;;;4.61;100.00
37238;BME280;23129;49.662;8.448;2023-02-05T10:38:04;102533.31;;;4.62;100.00
37238;BME280;23129;49.662;8.448;2023-02-05T10:40:40;102532.44;;;4.61;100.00
37238;BME280;23129;49.662;8.448;2023-02-05T10:43:18;102530.78;;;4.65;100.00
37238;BME280;23129;49.662;8.448;2023-02-05T10:45:49;102533.56;;;4.71;100.00
37238;BME280;23129;49.662;8.448;2023-02-05T10:48:36;102535.31;;;4.72;100.00
37238;BME280;23129;49.662;8.448;2023-02-05T10:51:11;102517.19;;;4.73;100.00
37238;BME280;23129;49.662;8.448;2023-02-05T10:53:42;102519.78;;;4.73;100.00
37238;BME280;23129;49.662;8.448;2023-02-05T10:56:16;102512.88;;;4.74;100.00
37238;BME280;23129;49.662;8.448;2023-02-05T10:58:51;102509.41;;;4.75;100.00
37238;BME280;23129;49.662;8.448;2023-02-05T11:01:22;102502.47;;;4.74;100.00
37238;BME280;23129;49.662;8.448;2023-02-05T11:03:54;102502.38;;;4.71;100.00
37238;BME280;23129;49.662;8.448;2023-02-05T11:06:30;102497.09;;;4.68;100.00
37238;BME280;23129;49.662;8.448;2023-02-05T11:08:59;102498.66;;;4.63;100.00
37238;BME280;23129;49.662;8.448;2023-02-05T11:11:30;102501.22;;;4.61;100.00
37238;BME280;23129;49.662;8.448;2023-02-05T11:14:01;102488.28;;;4.63;100.00
37238;BME280;23129;49.662;8.448;2023-02-05T11:16:37;102487.47;;;4.64;100.00
37238;BME280;23129;49.662;8.448;2023-02-05T11:19:17;102481.41;;;4.65;100.00
37238;BME280;23129;49.662;8.448;2023-02-05T11:21:52;102484.03;;;4.66;100.00
37238;BME280;23129;49.662;8.448;2023-02-05T11:24:25;102474.63;;;4.70;100.00
37238;BME280;23129;49.662;8.448;2023-02-05T11:27:29;102479.94;;;4.73;100.00
37238;BME280;23129;49.662;8.448;2023-02-05T11:30:17;102484.38;;;4.77;100.00
37238;BME280;23129;49.662;8.448;2023-02-05T11:33:28;102480.00;;;4.76;100.00
37238;BME280;23129;49.662;8.448;2023-02-05T11:36:00;102474.81;;;4.76;100.00
37238;BME280;23129;49.662;8.448;2023-02-05T11:38:42;102467.88;;;4.76;100.00
37238;BME280;23129;49.662;8.448;2023-02-05T11:41:14;102469.63;;;4.77;100.00
37238;BME280;23129;49.662;8.448;2023-02-05T11:43:53;102464.50;;;4.79;100.00
37238;BME280;23129;49.662;8.448;2023-02-05T11:46:24;102455.78;;;4.78;100.00
37238;BME280;23129;49.662;8.448;2023-02-05T11:48:56;102450.59;;;4.78;100.00
37238;BME280;23129;49.662;8.448;2023-02-05T11:51:36;102457.53;;;4.78;100.00
37238;BME280;23129;49.662;8.448;2023-02-05T11:54:19;102453.19;;;4.78;100.00
37238;BME280;23129;49.662;8.448;2023-02-05T11:57:21;102464.59;;;4.82;100.00
37238;BME280;23129;49.662;8.448;2023-02-05T11:59:56;102455.94;;;4.83;100.00
37238;BME280;23129;49.662;8.448;2023-02-05T12:02:31;102460.34;;;4.86;100.00
37238;BME280;23129;49.662;8.448;2023-02-05T12:05:07;102457.78;;;4.87;100.00
37238;BME280;23129;49.662;8.448;2023-02-05T12:07:45;102467.44;;;4.91;100.00
37238;BME280;23129;49.662;8.448;2023-02-05T12:10:20;102471.78;;;4.92;100.00
37238;BME280;23129;49.662;8.448;2023-02-05T12:13:05;102457.06;;;4.93;100.00
37238;BME280;23129;49.662;8.448;2023-02-05T12:15:40;102461.44;;;4.94;100.00
37238;BME280;23129;49.662;8.448;2023-02-05T12:18:21;102463.19;;;4.95;100.00
37238;BME280;23129;49.662;8.448;2023-02-05T12:21:09;102456.28;;;4.95;100.00
37238;BME280;23129;49.662;8.448;2023-02-05T12:24:09;102451.06;;;4.95;100.00
37238;BME280;23129;49.662;8.448;2023-02-05T12:26:44;102448.56;;;4.98;100.00
37238;BME280;23129;49.662;8.448;2023-02-05T12:29:31;102450.31;;;4.99;100.00
37238;BME280;23129;49.662;8.448;2023-02-05T12:32:13;102441.78;;;5.03;100.00
37238;BME280;23129;49.662;8.448;2023-02-05T12:35:09;102437.50;;;5.06;100.00
37238;BME280;23129;49.662;8.448;2023-02-05T12:37:46;102434.91;;;5.06;100.00
37238;BME280;23129;49.662;8.448;2023-02-05T12:40:40;102435.81;;;5.08;100.00
37238;BME280;23129;49.662;8.448;2023-02-05T12:43:27;102438.53;;;5.12;100.00
37238;BME280;23129;49.662;8.448;2023-02-05T12:46:15;102432.53;;;5.15;100.00
37238;BME280;23129;49.662;8.448;2023-02-05T12:49:03;102427.25;;;5.12;100.00
37238;BME280;23129;49.662;8.448;2023-02-05T12:51:48;102423.81;;;5.13;100.00
37238;BME280;23129;49.662;8.448;2023-02-05T12:54:53;102429.97;;;5.16;100.00
37238;BME280;23129;49.662;8.448;2023-02-05T12:57:27;102427.44;;;5.18;100.00
37238;BME280;23129;49.662;8.448;2023-02-05T13:00:10;102424.81;;;5.18;100.00
37238;BME280;23129;49.662;8.448;2023-02-05T13:02:51;102425.69;;;5.18;100.00
37238;BME280;23129;49.662;8.448;2023-02-05T13:05:27;102417.09;;;5.21;100.00
37238;BME280;23129;49.662;8.448;2023-02-05T13:08:04;102423.13;;;5.20;100.00
37238;BME280;23129;49.662;8.448;2023-02-05T13:10:44;102413.66;;;5.22;100.00
37238;BME280;23129;49.662;8.448;2023-02-05T13:13:17;102418.91;;;5.23;100.00
37238;BME280;23129;49.662;8.448;2023-02-05T13:15:58;102417.25;;;5.27;100.00
37238;BME280;23129;49.662;8.448;2023-02-05T13:18:31;102417.34;;;5.32;100.00
37238;BME280;23129;49.662;8.448;2023-02-05T13:21:04;102418.31;;;5.35;100.00
37238;BME280;23129;49.662;8.448;2023-02-05T13:23:59;102422.69;;;5.36;100.00
37238;BME280;23129;49.662;8.448;2023-02-05T13:26:47;102421.91;;;5.40;100.00
37238;BME280;23129;49.662;8.448;2023-02-05T13:29:44;102421.97;;;5.42;100.00